createdAt,value
2023-05-19T00:11:50.743Z,85.3
2023-05-19T00:31:50.743Z,85.8
2023-05-19T00:51:50.742Z,87.1
2023-05-19T01:11:50.730Z,86.9
2023-05-19T01:31:50.728Z,87.9
2023-05-19T01:51:50.721Z,88.1
2023-05-19T02:11:50.722Z,88.3
2023-05-19T02:31:50.702Z,88.1
2023-05-19T02:51:50.704Z,87.7
2023-05-19T03:11:50.697Z,85.9
2023-05-19T03:31:50.706Z,86.2
2023-05-19T03:51:50.696Z,86.1
2023-05-19T04:11:50.694Z,85.3
2023-05-19T04:31:50.611Z,84.9
2023-05-19T04:51:50.582Z,83.1
2023-05-19T05:11:50.565Z,82.2
2023-05-19T05:31:50.577Z,81.0
2023-05-19T05:51:50.576Z,79.9
2023-05-19T06:11:50.566Z,76.5
2023-05-19T06:31:50.562Z,75.2
2023-05-19T06:51:50.477Z,73.8
2023-05-19T07:11:50.473Z,72.0
2023-05-19T07:31:50.568Z,71.7
2023-05-19T07:51:50.599Z,71.2
2023-05-19T08:11:50.505Z,71.6
2023-05-19T08:31:50.478Z,70.0
2023-05-19T08:51:50.382Z,70.3
2023-05-19T09:11:50.508Z,70.6
2023-05-19T09:31:50.663Z,71.4
2023-05-19T09:51:50.526Z,70.7
2023-05-19T10:11:50.513Z,71.5
2023-05-19T10:31:50.452Z,71.4
2023-05-19T10:51:50.394Z,71.4
2023-05-19T11:11:50.458Z,69.3
2023-05-19T11:31:50.351Z,68.5
2023-05-19T11:51:50.345Z,69.1
2023-05-19T12:11:50.255Z,66.6
2023-05-19T12:31:50.300Z,67.0
2023-05-19T12:51:50.253Z,67.3
2023-05-19T13:11:50.196Z,68.6
2023-05-19T13:31:50.283Z,66.8
2023-05-19T13:51:50.087Z,65.3
2023-05-19T14:11:50.208Z,63.5
2023-05-19T14:31:50.109Z,66.4
2023-05-19T14:51:50.139Z,65.3
2023-05-19T15:11:50.168Z,66.3
2023-05-19T15:31:50.145Z,67.3
2023-05-19T15:51:50.000Z,67.0
2023-05-19T16:11:50.016Z,70.2
2023-05-19T16:31:50.062Z,66.6
2023-05-19T16:51:49.886Z,68.9
2023-05-19T17:11:49.891Z,69.6
2023-05-19T17:31:49.902Z,73.4
2023-05-19T17:51:49.948Z,75.7
2023-05-19T18:11:49.945Z,77.3
2023-05-19T18:31:49.903Z,81.2
2023-05-19T18:51:49.817Z,81.9
2023-05-19T19:11:49.865Z,81.5
2023-05-19T19:31:49.978Z,78.5
2023-05-19T19:51:49.786Z,77.9
2023-05-19T20:11:49.737Z,76.6
2023-05-19T20:31:49.765Z,76.7
2023-05-19T20:51:49.613Z,77.9
2023-05-19T21:11:49.671Z,76.2
2023-05-19T21:31:49.790Z,75.6
2023-05-19T21:51:49.787Z,76.3
2023-05-19T22:11:49.605Z,76.9
2023-05-19T22:31:49.496Z,77.1
2023-05-19T22:51:49.738Z,78.3
2023-05-19T23:11:49.627Z,80.2
2023-05-19T23:31:49.561Z,81.3
2023-05-19T23:51:49.582Z,82.4
